Terminal Aerodrome Forecast
Issued by NWS

Home | Current Version | Previous Version | Text Only | Print | Product List | Glossary On
Versions: 1 2 3 4 5 6 7 8 9 10 11 12 13 14 15 16 17 18 19 20 21
000
FTUS43 KAPX 082338
TAFPLN
TAF
KPLN 082338Z 0900/0924 32009KT P6SM VCSH OVC040
     FM091500 34006KT 5SM -SHSN OVC035
     FM091700 33006KT 2SM -SHSN OVC025=

USA.gov is the U.S. government's official web portal to all federal, state and local government web resources and services.